Terminal Aerodrome Forecast
Issued by NWS Cleveland, OH

Home | Current Version | Previous Version | Graphics & Text | Print | Product List | Glossary On
Versions: 1 2 3 4 5 6 7 8 9 10 11 12 13 14 15 16 17
445
FTUS41 KCLE 241734
TAFTOL
TAF
KTOL 241734Z 2418/2518 26010KT 5SM -SHRA VCTS OVC035CB
      TEMPO 2418/2421 VRB20G30KT 2SM -TSRA OVC020CB
     FM242300 22008KT P6SM SCT040 BKN100
     FM250800 25010KT P6SM VCTS BKN035CB OVC080
     FM251200 26010KT P6SM SCT035 BKN100=

USA.gov is the U.S. government's official web portal to all federal, state and local government web resources and services.